Time;durP1;ratioP1;P1;durP2;ratioP2;P2;SDS_P1;SDS_P2;PMS_P1;PMS_P2;Temp;Humidity;BMP_temperature;BMP_pressure;BME280_temperature;BME280_humidity;BME280_pressure;Samples;Min_cycle;Max_cycle;Signal;HPM_P1;HPM_P2
2023/12/02 00:01:20;;;;;;;13.70;10.50;;;;;;;25.02;30.60;99944.23;103064;1294;61366;-81
2023/12/02 00:03:46;;;;;;;13.50;10.50;;;;;;;25.03;30.70;99939.71;103196;1290;62327;-81
2023/12/02 00:06:11;;;;;;;14.80;10.80;;;;;;;25.03;30.66;99935.73;103096;1294;61378;-80
2023/12/02 00:08:37;;;;;;;13.40;10.60;;;;;;;25.03;30.61;99938.10;103167;1290;61392;-80
2023/12/02 00:11:03;;;;;;;14.10;10.90;;;;;;;25.03;30.64;99939.27;103322;1294;61385;-82
2023/12/02 00:13:28;;;;;;;14.80;10.80;;;;;;;25.03;30.62;99936.98;103116;1291;61385;-81
2023/12/02 00:15:54;;;;;;;13.50;10.40;;;;;;;25.03;30.53;99935.54;103153;1290;61892;-81
2023/12/02 00:18:20;;;;;;;14.50;10.80;;;;;;;25.02;30.59;99942.05;103161;1294;61427;-80
2023/12/02 00:20:46;;;;;;;14.00;10.60;;;;;;;25.03;30.56;99940.02;103110;1290;62360;-81
2023/12/02 00:23:12;;;;;;;14.30;11.00;;;;;;;25.02;30.60;99935.96;103078;1289;61387;-81
2023/12/02 00:25:38;;;;;;;14.00;11.20;;;;;;;25.03;30.54;99940.73;103358;1289;61777;-81
2023/12/02 00:28:03;;;;;;;13.90;11.00;;;;;;;25.03;30.59;99946.13;103305;1289;61747;-80
2023/12/02 00:30:29;;;;;;;15.40;11.80;;;;;;;25.03;30.60;99943.84;103097;1294;63919;-80
2023/12/02 00:32:55;;;;;;;14.90;10.70;;;;;;;25.03;30.64;99937.35;103084;1289;61389;-81
2023/12/02 00:35:20;;;;;;;16.20;11.30;;;;;;;25.03;30.63;99935.86;103171;1289;61389;-81
2023/12/02 00:37:46;;;;;;;14.50;11.10;;;;;;;25.03;30.53;99936.04;103086;1293;61300;-83
2023/12/02 00:40:11;;;;;;;14.80;11.60;;;;;;;25.03;30.58;99929.89;103180;1290;62382;-83
2023/12/02 00:42:37;;;;;;;13.80;10.40;;;;;;;25.03;30.63;99918.21;103116;1291;72299;-82
2023/12/02 00:45:03;;;;;;;13.40;10.80;;;;;;;25.03;30.61;99913.70;103097;1289;61375;-83
2023/12/02 00:47:29;;;;;;;13.60;11.10;;;;;;;25.03;30.53;99905.09;103105;1289;61364;-82
2023/12/02 00:49:55;;;;;;;14.80;10.70;;;;;;;25.04;30.59;99905.73;103221;1295;61422;-82
2023/12/02 00:52:20;;;;;;;14.30;10.90;;;;;;;25.04;30.53;99898.20;103229;1290;61345;-83
2023/12/02 00:54:46;;;;;;;15.00;11.00;;;;;;;25.03;30.49;99895.70;103159;1290;62263;-83
2023/12/02 00:57:11;;;;;;;15.20;11.30;;;;;;;25.04;30.63;99895.84;103184;1290;74744;-83
2023/12/02 00:59:37;;;;;;;14.30;11.50;;;;;;;25.04;30.66;99895.88;103073;1289;61389;-82
2023/12/02 01:02:03;;;;;;;14.30;11.50;;;;;;;25.03;30.60;99889.21;103104;1289;63020;-81
2023/12/02 01:04:29;;;;;;;14.60;11.00;;;;;;;25.03;30.72;99887.42;103212;1290;61346;-82
2023/12/02 01:06:54;;;;;;;14.50;11.30;;;;;;;25.04;30.53;99883.63;103081;1293;61388;-83
2023/12/02 01:09:20;;;;;;;15.70;11.20;;;;;;;25.04;30.60;99882.52;103141;1290;62392;-82
2023/12/02 01:11:46;;;;;;;14.00;10.70;;;;;;;25.04;30.63;99889.30;103083;1293;61391;-82
2023/12/02 01:14:12;;;;;;;15.20;11.40;;;;;;;25.04;30.57;99885.69;103202;1291;61493;-83
2023/12/02 01:16:37;;;;;;;13.00;10.30;;;;;;;25.04;30.60;99887.70;103199;1294;61903;-83
2023/12/02 01:19:03;;;;;;;13.10;10.00;;;;;;;25.04;30.62;99890.55;103100;1290;61320;-82
2023/12/02 01:21:29;;;;;;;16.40;11.90;;;;;;;25.04;30.53;99889.50;103155;1293;61316;-83
2023/12/02 01:23:54;;;;;;;14.20;11.50;;;;;;;25.04;30.59;99895.40;103205;1297;61489;-82
2023/12/02 01:26:20;;;;;;;15.60;11.30;;;;;;;25.05;30.65;99893.04;103249;1289;61420;-83
2023/12/02 01:28:45;;;;;;;16.20;11.30;;;;;;;25.05;30.57;99887.11;103114;1293;61326;-82
2023/12/02 01:31:11;;;;;;;13.10;10.70;;;;;;;25.05;30.55;99883.80;103123;1293;61777;-83
2023/12/02 01:33:37;;;;;;;13.70;10.80;;;;;;;25.05;30.57;99878.05;103131;1289;59392;-81
2023/12/02 01:36:04;;;;;;;16.00;11.60;;;;;;;25.05;30.59;99872.45;103163;1294;61564;-82
2023/12/02 01:38:29;;;;;;;14.00;10.80;;;;;;;25.05;30.57;99872.09;103214;1291;61279;-83
2023/12/02 01:40:55;;;;;;;13.50;11.20;;;;;;;25.06;30.62;99868.09;103116;1290;62194;-83
2023/12/02 01:43:25;;;;;;;15.10;10.80;;;;;;;25.05;30.53;99859.67;103153;1291;73392;-83
2023/12/02 01:45:51;;;;;;;15.50;11.50;;;;;;;25.05;30.63;99857.36;103160;1289;61345;-83
2023/12/02 01:48:20;;;;;;;13.00;10.90;;;;;;;25.06;30.58;99855.30;103053;1290;61298;-81
2023/12/02 01:50:46;;;;;;;15.50;11.30;;;;;;;25.06;30.68;99850.45;103138;1290;63869;-81
2023/12/02 01:53:12;;;;;;;13.40;10.80;;;;;;;25.06;30.63;99845.77;103082;1294;61421;-81
2023/12/02 01:55:38;;;;;;;14.30;11.30;;;;;;;25.06;30.60;99844.51;103149;1290;61281;-81
2023/12/02 01:58:03;;;;;;;12.90;10.50;;;;;;;25.06;30.67;99841.58;103132;1293;61500;-81
2023/12/02 02:00:29;;;;;;;13.90;10.60;;;;;;;25.06;30.60;99839.61;103192;1290;61499;-81
2023/12/02 02:02:55;;;;;;;14.50;11.40;;;;;;;25.07;30.57;99842.60;103152;1290;61406;-81
2023/12/02 02:05:20;;;;;;;12.30;10.50;;;;;;;25.06;30.68;99840.80;103112;1290;74473;-81
2023/12/02 02:07:46;;;;;;;14.90;10.80;;;;;;;25.07;30.62;99838.41;103154;1289;61398;-81
2023/12/02 02:10:11;;;;;;;14.50;10.90;;;;;;;25.07;30.59;99840.08;103126;1290;61962;-81
2023/12/02 02:12:37;;;;;;;13.70;11.30;;;;;;;25.07;30.59;99842.98;103369;1289;61912;-81
2023/12/02 02:15:03;;;;;;;14.40;11.50;;;;;;;25.07;30.53;99841.48;103117;1290;61375;-81
2023/12/02 02:17:29;;;;;;;14.40;10.20;;;;;;;25.07;30.56;99838.25;103214;1293;62248;-81
2023/12/02 02:19:54;;;;;;;13.70;10.90;;;;;;;25.07;30.54;99833.93;103280;1291;61319;-81
2023/12/02 02:22:20;;;;;;;14.30;10.60;;;;;;;25.07;30.61;99840.41;103162;1290;61465;-81
2023/12/02 02:24:46;;;;;;;13.50;10.70;;;;;;;25.07;30.52;99842.73;103209;1294;61370;-81
2023/12/02 02:27:11;;;;;;;13.80;10.50;;;;;;;25.07;30.55;99849.89;103174;1292;61409;-81
2023/12/02 02:29:37;;;;;;;13.70;11.10;;;;;;;25.07;30.61;99852.96;103180;1290;61419;-81
2023/12/02 02:32:03;;;;;;;14.80;11.10;;;;;;;25.08;30.69;99851.63;103366;1289;61397;-81
2023/12/02 02:34:29;;;;;;;13.60;10.60;;;;;;;25.08;30.48;99845.15;103139;1291;61283;-81
2023/12/02 02:36:54;;;;;;;12.20;10.60;;;;;;;25.08;30.63;99842.98;103112;1294;61469;-81
2023/12/02 02:39:20;;;;;;;13.60;10.60;;;;;;;25.09;30.57;99839.51;103093;1294;61493;-81
2023/12/02 02:41:46;;;;;;;13.30;10.60;;;;;;;25.09;30.61;99838.23;103129;1290;61762;-81
2023/12/02 02:44:11;;;;;;;14.40;11.20;;;;;;;25.09;30.59;99838.40;103193;1289;61396;-81
2023/12/02 02:46:37;;;;;;;15.70;11.20;;;;;;;25.09;30.51;99833.16;103143;1290;62647;-81
2023/12/02 02:49:03;;;;;;;15.00;10.90;;;;;;;25.09;30.63;99835.94;103055;1289;61463;-81
2023/12/02 02:51:28;;;;;;;13.90;10.60;;;;;;;25.09;30.55;99835.36;103180;1294;61385;-81
2023/12/02 02:53:54;;;;;;;14.80;11.40;;;;;;;25.09;30.68;99825.48;103139;1288;61355;-81
2023/12/02 02:56:20;;;;;;;15.00;10.70;;;;;;;25.09;30.50;99817.17;103118;1290;62388;-81
2023/12/02 02:58:46;;;;;;;12.60;10.60;;;;;;;25.09;30.61;99808.89;103064;1289;61388;-81
2023/12/02 03:01:11;;;;;;;15.20;10.90;;;;;;;25.09;30.61;99809.58;103166;1291;61351;-81
2023/12/02 03:03:37;;;;;;;14.40;10.90;;;;;;;25.08;30.63;99810.71;103190;1290;74433;-81
2023/12/02 03:06:04;;;;;;;13.20;10.20;;;;;;;25.08;30.59;99817.40;103029;1290;62646;-81
2023/12/02 03:08:30;;;;;;;13.40;10.50;;;;;;;25.09;30.63;99821.28;103088;1294;61338;-81
2023/12/02 03:10:55;;;;;;;15.20;10.50;;;;;;;25.09;30.61;99825.45;103111;1290;61420;-81
2023/12/02 03:13:21;;;;;;;13.10;10.60;;;;;;;25.09;30.59;99826.92;103188;1290;61501;-81
2023/12/02 03:15:47;;;;;;;16.20;11.20;;;;;;;25.09;30.59;99825.04;103221;1294;62140;-81
2023/12/02 03:18:13;;;;;;;14.90;10.70;;;;;;;25.09;30.65;99826.48;103126;1290;61467;-81
2023/12/02 03:20:39;;;;;;;15.30;10.90;;;;;;;25.09;30.66;99827.96;103189;1289;61791;-81
2023/12/02 03:23:05;;;;;;;16.20;11.90;;;;;;;25.09;30.66;99832.59;103106;1291;72276;-81
2023/12/02 03:25:31;;;;;;;15.00;11.80;;;;;;;25.10;30.65;99833.30;103158;1289;61654;-81
2023/12/02 03:27:56;;;;;;;17.00;11.30;;;;;;;25.10;30.66;99833.64;103129;1288;61393;-81
2023/12/02 03:30:22;;;;;;;14.10;10.60;;;;;;;25.10;30.57;99824.08;103143;1289;61424;-81
2023/12/02 03:32:48;;;;;;;15.20;11.20;;;;;;;25.10;30.64;99813.96;103121;1290;61829;-81
2023/12/02 03:35:14;;;;;;;14.70;10.80;;;;;;;25.10;30.65;99814.92;103107;1294;61457;-81
2023/12/02 03:37:39;;;;;;;13.40;10.80;;;;;;;25.10;30.69;99813.83;103171;1290;74500;-81
2023/12/02 03:40:10;;;;;;;14.30;11.20;;;;;;;25.10;30.63;99815.05;103202;1289;61384;-81
2023/12/02 03:42:35;;;;;;;14.30;11.20;;;;;;;25.11;30.59;99816.26;103226;1289;61381;-81
2023/12/02 03:45:01;;;;;;;14.40;11.00;;;;;;;25.11;30.70;99811.91;103260;1288;61372;-82
2023/12/02 03:47:28;;;;;;;15.60;11.70;;;;;;;25.11;30.74;99806.91;103239;1291;61429;-82
2023/12/02 03:49:53;;;;;;;15.20;11.40;;;;;;;25.11;30.69;99806.51;103180;1290;62956;-82
2023/12/02 03:52:19;;;;;;;14.00;11.20;;;;;;;25.12;30.61;99804.82;103152;1289;61422;-82
2023/12/02 03:54:45;;;;;;;15.70;11.80;;;;;;;25.12;30.65;99806.61;103087;1290;61467;-82
2023/12/02 03:57:10;;;;;;;14.80;11.40;;;;;;;25.11;30.66;99806.48;103166;1293;61328;-81
2023/12/02 03:59:38;;;;;;;14.70;11.00;;;;;;;25.11;30.56;99801.79;103214;1295;74542;-82
2023/12/02 04:02:04;;;;;;;15.80;11.00;;;;;;;25.12;30.61;99797.30;103329;1288;61450;-82
2023/12/02 04:04:30;;;;;;;14.70;11.40;;;;;;;25.12;30.63;99794.35;103043;1289;61440;-82
2023/12/02 04:06:56;;;;;;;13.80;11.10;;;;;;;25.12;30.66;99792.00;103158;1289;61464;-82
2023/12/02 04:09:21;;;;;;;13.60;11.10;;;;;;;25.13;30.50;99788.36;103068;1289;61385;-82
2023/12/02 04:11:48;;;;;;;15.50;11.20;;;;;;;25.13;30.66;99785.09;103270;1289;61774;-82
2023/12/02 04:14:16;;;;;;;14.40;11.50;;;;;;;25.13;30.59;99792.11;103143;1289;61366;-82
2023/12/02 04:16:42;;;;;;;15.00;11.40;;;;;;;25.13;30.60;99789.06;103109;1289;61330;-82
2023/12/02 04:19:08;;;;;;;15.20;11.70;;;;;;;25.13;30.60;99795.18;103067;1290;61374;-81
2023/12/02 04:21:35;;;;;;;14.90;11.00;;;;;;;25.13;30.65;99792.48;103201;1290;61346;-82
2023/12/02 04:24:01;;;;;;;14.80;11.10;;;;;;;25.13;30.66;99789.41;103367;1290;61361;-82
2023/12/02 04:26:26;;;;;;;14.60;11.40;;;;;;;25.13;30.58;99791.39;103197;1293;61477;-81
2023/12/02 04:28:52;;;;;;;15.60;10.80;;;;;;;25.13;30.62;99791.73;103162;1289;61498;-81
2023/12/02 04:31:18;;;;;;;15.10;11.90;;;;;;;25.14;30.61;99789.54;103109;1290;74424;-82
2023/12/02 04:33:43;;;;;;;14.70;11.20;;;;;;;25.13;30.64;99786.33;103135;1291;61862;-81
2023/12/02 04:36:10;;;;;;;15.00;11.10;;;;;;;25.13;30.61;99791.34;103352;1290;61361;-82
2023/12/02 04:38:36;;;;;;;13.40;10.50;;;;;;;25.13;30.63;99788.64;103200;1291;62382;-82
2023/12/02 04:41:01;;;;;;;13.00;10.90;;;;;;;25.14;30.71;99798.30;103109;1290;61402;-81
2023/12/02 04:43:27;;;;;;;14.50;11.00;;;;;;;25.14;30.57;99807.27;103107;1290;62967;-81
2023/12/02 04:45:53;;;;;;;15.60;11.60;;;;;;;25.15;30.76;99812.97;103152;1289;61449;-82
2023/12/02 04:48:18;;;;;;;14.90;11.20;;;;;;;25.15;30.64;99809.77;103245;1296;61595;-81
2023/12/02 04:50:44;;;;;;;15.00;11.30;;;;;;;25.15;30.67;99802.91;103120;1290;61408;-81
2023/12/02 04:53:10;;;;;;;13.40;11.10;;;;;;;25.15;30.68;99798.75;103237;1291;61425;-82
2023/12/02 04:55:35;;;;;;;14.00;10.60;;;;;;;25.15;30.62;99799.65;103160;1289;61336;-82
2023/12/02 04:58:02;;;;;;;13.90;10.90;;;;;;;25.15;30.64;99800.86;103123;1291;61400;-81
2023/12/02 05:00:27;;;;;;;15.00;10.90;;;;;;;25.15;30.64;99800.52;103200;1289;62146;-81
2023/12/02 05:02:53;;;;;;;13.00;10.70;;;;;;;25.15;30.71;99802.33;103216;1288;72391;-82
2023/12/02 05:05:19;;;;;;;13.40;10.30;;;;;;;25.15;30.62;99803.19;103187;1294;62408;-82
2023/12/02 05:07:45;;;;;;;13.20;10.60;;;;;;;25.15;30.66;99804.47;103145;1291;61270;-81
2023/12/02 05:10:10;;;;;;;15.00;11.00;;;;;;;25.16;30.68;99804.08;103105;1291;61411;-81
2023/12/02 05:12:36;;;;;;;14.20;11.20;;;;;;;25.16;30.78;99799.59;103130;1290;61510;-82
2023/12/02 05:15:04;;;;;;;13.50;10.50;;;;;;;25.16;30.68;99797.19;103270;1290;61954;-82
2023/12/02 05:17:30;;;;;;;14.90;10.60;;;;;;;25.15;30.67;99796.34;103120;1289;74717;-82
2023/12/02 05:19:56;;;;;;;15.20;10.60;;;;;;;25.15;30.66;99794.23;103263;1291;61548;-82
2023/12/02 05:22:22;;;;;;;14.20;10.50;;;;;;;25.14;30.54;99797.41;103410;1290;61401;-82
2023/12/02 05:24:47;;;;;;;14.60;10.70;;;;;;;25.13;30.82;99794.64;103171;1291;61426;-82
2023/12/02 05:27:13;;;;;;;13.50;10.70;;;;;;;25.11;30.77;99798.98;103131;1293;61834;-81
2023/12/02 05:29:39;;;;;;;13.30;10.50;;;;;;;25.08;30.80;99800.99;103241;1291;61388;-81
2023/12/02 05:32:05;;;;;;;13.80;10.60;;;;;;;25.07;30.83;99802.77;103143;1289;62321;-82
2023/12/02 05:34:33;;;;;;;13.00;10.40;;;;;;;25.05;30.82;99798.73;103095;1290;61366;-81
2023/12/02 05:36:59;;;;;;;13.60;10.10;;;;;;;25.02;30.84;99786.79;103132;1290;72601;-81
2023/12/02 05:39:24;;;;;;;12.90;10.20;;;;;;;24.99;30.77;99786.35;103210;1291;61390;-81
2023/12/02 05:41:50;;;;;;;14.10;10.70;;;;;;;24.96;30.89;99783.60;103104;1290;61395;-82
2023/12/02 05:44:16;;;;;;;14.20;10.60;;;;;;;24.94;30.82;99781.87;103130;1289;61408;-82
2023/12/02 05:46:42;;;;;;;12.80;10.10;;;;;;;24.91;30.99;99780.91;103131;1290;61402;-82
2023/12/02 05:49:08;;;;;;;14.20;10.20;;;;;;;24.88;30.87;99777.55;103311;1295;61391;-81
2023/12/02 05:51:38;;;;;;;13.70;10.10;;;;;;;24.86;31.01;99781.35;103685;1290;61380;-82
2023/12/02 05:54:06;;;;;;;14.20;10.50;;;;;;;24.83;30.95;99780.77;103507;1295;61268;-82
2023/12/02 05:56:32;;;;;;;14.10;10.60;;;;;;;24.82;30.99;99779.50;103356;1290;61352;-81
2023/12/02 05:58:57;;;;;;;15.30;10.90;;;;;;;24.79;31.06;99771.83;103326;1289;61563;-82
2023/12/02 06:01:23;;;;;;;14.00;10.70;;;;;;;24.77;31.09;99772.78;103385;1296;61435;-82
2023/12/02 06:03:49;;;;;;;14.60;10.40;;;;;;;24.75;31.08;99777.84;103228;1290;61709;-82
2023/12/02 06:06:15;;;;;;;14.00;10.10;;;;;;;24.72;31.21;99781.12;103147;1290;61461;-82
2023/12/02 06:08:41;;;;;;;14.20;10.50;;;;;;;24.71;31.10;99780.17;103206;1290;61356;-81
2023/12/02 06:11:07;;;;;;;13.80;9.90;;;;;;;24.70;31.12;99775.71;103050;1290;63629;-81
2023/12/02 06:13:35;;;;;;;12.50;10.20;;;;;;;24.68;31.15;99771.21;103013;1289;61416;-81
2023/12/02 06:16:00;;;;;;;13.30;10.30;;;;;;;24.66;31.11;99770.52;103018;1290;61388;-81
2023/12/02 06:18:28;;;;;;;12.50;9.70;;;;;;;24.64;31.12;99773.01;103086;1289;61328;-82
2023/12/02 06:20:54;;;;;;;12.30;9.80;;;;;;;24.62;31.21;99773.19;103080;1290;61479;-82
2023/12/02 06:23:19;;;;;;;15.10;10.30;;;;;;;24.62;31.20;99776.51;103084;1290;62335;-82
2023/12/02 06:25:45;;;;;;;12.90;9.80;;;;;;;24.60;31.24;99776.66;103123;1294;61391;-82
2023/12/02 06:28:10;;;;;;;12.40;9.60;;;;;;;24.57;31.15;99768.25;103087;1290;61445;-82
2023/12/02 06:30:36;;;;;;;13.90;10.20;;;;;;;24.57;31.26;99768.52;103212;1291;61414;-81
2023/12/02 06:33:02;;;;;;;12.70;10.10;;;;;;;24.55;31.19;99757.67;103028;1290;62995;-82
2023/12/02 06:35:27;;;;;;;15.30;10.60;;;;;;;24.54;31.17;99755.68;103135;1290;61447;-81
2023/12/02 06:37:53;;;;;;;14.20;9.80;;;;;;;24.53;31.16;99759.18;102995;1290;61519;-81
2023/12/02 06:40:19;;;;;;;14.40;10.10;;;;;;;24.52;31.22;99764.89;103007;1290;61419;-82
2023/12/02 06:42:44;;;;;;;13.10;10.00;;;;;;;24.51;31.20;99765.36;103107;1291;61480;-81
2023/12/02 06:45:10;;;;;;;15.30;10.10;;;;;;;24.49;31.19;99764.61;102749;1290;62646;-82
2023/12/02 06:47:36;;;;;;;13.50;10.50;;;;;;;24.48;31.24;99764.71;103113;1290;61902;-82
2023/12/02 06:50:03;;;;;;;13.80;10.90;;;;;;;24.47;31.26;99773.23;103153;1290;61397;-82
2023/12/02 06:52:32;;;;;;;12.70;10.00;;;;;;;24.47;31.11;99774.02;103077;1290;61393;-81
2023/12/02 06:54:58;;;;;;;13.20;10.10;;;;;;;24.46;31.28;99780.94;103132;1290;61316;-81
2023/12/02 06:57:24;;;;;;;12.80;9.60;;;;;;;24.46;31.23;99788.70;103052;1289;61405;-82
2023/12/02 06:59:51;;;;;;;13.80;10.20;;;;;;;24.45;31.29;99794.86;103086;1291;61389;-82
2023/12/02 07:02:18;;;;;;;14.00;10.60;;;;;;;24.44;31.23;99791.54;103164;1290;61300;-81
2023/12/02 07:04:45;;;;;;;13.60;10.60;;;;;;;24.44;31.23;99792.29;103147;1291;61329;-82
2023/12/02 07:07:12;;;;;;;13.50;10.30;;;;;;;24.43;31.29;99789.89;103150;1289;74421;-82
2023/12/02 07:09:38;;;;;;;14.40;10.70;;;;;;;24.42;31.24;99792.65;103126;1290;61293;-82
2023/12/02 07:12:04;;;;;;;12.80;10.20;;;;;;;24.41;31.20;99795.77;103130;1290;61409;-82
2023/12/02 07:14:29;;;;;;;14.40;10.80;;;;;;;24.41;31.22;99797.27;103198;1289;61396;-81
2023/12/02 07:16:55;;;;;;;13.70;10.70;;;;;;;24.41;31.28;99793.34;103251;1290;62374;-82
2023/12/02 07:19:21;;;;;;;13.80;10.50;;;;;;;24.40;31.27;99793.05;103207;1296;61363;-82
2023/12/02 07:21:46;;;;;;;14.70;10.60;;;;;;;24.40;31.29;99796.88;103101;1290;62562;-82
2023/12/02 07:24:13;;;;;;;14.90;10.50;;;;;;;24.39;31.26;99804.78;103090;1290;61415;-81
2023/12/02 07:26:39;;;;;;;13.00;10.40;;;;;;;24.39;31.34;99811.34;103275;1293;61332;-82
2023/12/02 07:29:05;;;;;;;14.40;10.80;;;;;;;24.38;31.26;99810.71;103130;1290;61323;-82
2023/12/02 07:31:31;;;;;;;16.50;10.90;;;;;;;24.38;31.35;99810.55;103130;1290;61440;-81
2023/12/02 07:33:56;;;;;;;15.10;11.10;;;;;;;24.37;31.31;99808.68;103157;1294;61514;-82
2023/12/02 07:36:22;;;;;;;15.20;11.00;;;;;;;24.36;31.38;99818.45;103015;1290;290017;-81
2023/12/02 07:38:48;;;;;;;14.90;10.20;;;;;;;24.36;31.34;99820.45;103079;1295;72336;-82
2023/12/02 07:41:13;;;;;;;13.80;11.20;;;;;;;24.35;31.29;99817.63;103114;1290;61300;-81
2023/12/02 07:43:39;;;;;;;13.90;10.90;;;;;;;24.35;31.36;99814.05;103130;1289;61463;-82
2023/12/02 07:46:05;;;;;;;14.20;10.30;;;;;;;24.34;31.32;99821.14;103122;1289;61338;-82
2023/12/02 07:48:31;;;;;;;15.50;11.10;;;;;;;24.34;31.34;99830.48;103204;1294;61450;-82
2023/12/02 07:50:57;;;;;;;13.90;10.80;;;;;;;24.34;31.41;99827.30;103084;1290;61457;-82
2023/12/02 07:53:23;;;;;;;14.90;10.80;;;;;;;24.34;31.32;99827.33;103188;1290;62174;-81
2023/12/02 07:55:48;;;;;;;13.00;10.50;;;;;;;24.33;31.35;99823.61;103242;1291;61730;-82
2023/12/02 07:58:14;;;;;;;15.30;11.00;;;;;;;24.32;31.30;99824.91;103048;1289;61389;-81
2023/12/02 08:00:40;;;;;;;15.60;10.70;;;;;;;24.33;31.34;99818.23;103145;1297;61695;-81
2023/12/02 08:03:05;;;;;;;13.60;10.80;;;;;;;24.32;31.40;99807.51;103098;1297;61396;-81
2023/12/02 08:05:31;;;;;;;13.90;10.60;;;;;;;24.32;31.35;99808.40;103194;1290;61486;-81
2023/12/02 08:07:57;;;;;;;13.50;10.40;;;;;;;24.32;31.34;99810.08;103111;1292;61330;-82
2023/12/02 08:10:23;;;;;;;15.10;11.20;;;;;;;24.31;31.43;99805.16;103083;1290;61381;-81
2023/12/02 08:12:49;;;;;;;13.30;10.60;;;;;;;24.31;31.39;99806.02;103134;1291;62326;-82
2023/12/02 08:15:14;;;;;;;14.70;10.20;;;;;;;24.31;31.32;99808.21;103071;1290;61894;-81
2023/12/02 08:17:40;;;;;;;14.20;10.00;;;;;;;24.30;31.33;99810.61;103136;1290;61393;-82
2023/12/02 08:20:06;;;;;;;14.00;10.40;;;;;;;24.30;31.38;99814.39;103100;1294;61405;-82
2023/12/02 08:22:32;;;;;;;13.90;10.60;;;;;;;24.30;31.35;99813.67;103142;1289;62585;-82
2023/12/02 08:24:59;;;;;;;14.60;10.10;;;;;;;24.30;31.46;99808.67;103232;1290;61496;-82
2023/12/02 08:27:26;;;;;;;13.10;10.20;;;;;;;24.29;31.41;99808.35;103148;1290;74452;-82
2023/12/02 08:29:51;;;;;;;12.50;9.90;;;;;;;24.29;31.48;99803.52;103080;1289;61394;-82
2023/12/02 08:32:17;;;;;;;14.50;10.10;;;;;;;24.29;31.42;99804.43;103143;1290;61679;-82
2023/12/02 08:34:43;;;;;;;13.00;9.60;;;;;;;24.29;31.50;99811.11;103157;1294;61775;-81
2023/12/02 08:37:09;;;;;;;13.90;10.50;;;;;;;24.28;31.39;99817.06;103092;1290;61443;-82
2023/12/02 08:39:34;;;;;;;13.50;10.20;;;;;;;24.28;31.44;99808.63;103355;1290;61402;-81
2023/12/02 08:42:00;;;;;;;12.90;9.90;;;;;;;24.27;31.49;99796.64;103157;1290;61399;-82
2023/12/02 08:44:26;;;;;;;13.10;10.10;;;;;;;24.27;31.52;99799.75;103215;1290;61377;-82
2023/12/02 08:46:54;;;;;;;11.90;9.20;;;;;;;24.27;31.46;99806.57;103265;1289;61431;-82
2023/12/02 08:49:20;;;;;;;14.20;9.90;;;;;;;24.26;31.48;99803.77;103078;1290;65773;-82
2023/12/02 08:51:46;;;;;;;13.40;9.70;;;;;;;24.26;31.53;99799.64;103175;1290;61405;-81
2023/12/02 08:54:13;;;;;;;12.80;9.80;;;;;;;24.26;31.40;99804.34;103325;1292;61340;-82
2023/12/02 08:56:38;;;;;;;14.30;9.70;;;;;;;24.26;31.57;99798.61;103168;1290;61446;-82
2023/12/02 08:59:04;;;;;;;11.70;9.20;;;;;;;24.26;31.48;99796.08;103113;1290;62641;-81
2023/12/02 09:01:30;;;;;;;12.80;10.10;;;;;;;24.25;31.55;99791.29;103217;1290;61406;-82
2023/12/02 09:03:56;;;;;;;12.40;9.50;;;;;;;24.25;31.44;99775.86;103234;1290;61332;-81
2023/12/02 09:06:22;;;;;;;12.30;9.30;;;;;;;24.25;31.56;99763.10;103155;1290;61339;-82
2023/12/02 09:08:48;;;;;;;12.70;9.70;;;;;;;24.24;31.58;99743.95;103100;1290;61675;-82
2023/12/02 09:11:13;;;;;;;13.50;9.40;;;;;;;24.24;31.61;99738.91;103158;1290;61369;-82
2023/12/02 09:13:39;;;;;;;11.90;9.20;;;;;;;24.24;31.59;99738.38;103202;1290;61470;-82
2023/12/02 09:16:07;;;;;;;12.50;9.40;;;;;;;24.24;31.61;99731.75;103292;1291;61410;-82
2023/12/02 09:18:34;;;;;;;12.00;9.30;;;;;;;24.23;31.58;99716.56;103180;1291;61493;-82
2023/12/02 09:20:59;;;;;;;13.00;9.60;;;;;;;24.23;31.57;99715.32;103138;1291;61315;-82
2023/12/02 09:23:26;;;;;;;12.80;9.80;;;;;;;24.23;31.62;99716.94;103192;1293;61468;-81
2023/12/02 09:25:53;;;;;;;11.90;9.40;;;;;;;24.22;31.62;99726.14;103241;1290;61832;-81
2023/12/02 09:28:24;;;;;;;13.50;9.60;;;;;;;24.22;31.66;99721.98;103174;1290;61384;-82
2023/12/02 09:31:06;;;;;;;12.60;9.50;;;;;;;24.22;31.72;99720.61;103112;1291;74330;-82
2023/12/02 09:33:32;;;;;;;12.60;9.10;;;;;;;24.21;31.75;99710.59;103114;1290;61329;-82
2023/12/02 09:36:01;;;;;;;11.70;9.00;;;;;;;24.21;31.77;99714.02;103187;1295;61305;-82
2023/12/02 09:38:27;;;;;;;11.30;8.90;;;;;;;24.21;31.74;99714.06;103130;1295;73311;-82
2023/12/02 09:41:18;;;;;;;14.30;9.60;;;;;;;24.21;31.71;99701.66;103127;1290;61387;-81
2023/12/02 09:43:53;;;;;;;14.30;9.40;;;;;;;24.21;31.78;99702.39;103294;1290;61245;-82
2023/12/02 09:46:33;;;;;;;12.10;9.50;;;;;;;24.21;31.66;99702.59;103233;1290;61378;-82
2023/12/02 09:49:17;;;;;;;12.00;9.30;;;;;;;24.20;31.79;99674.65;103155;1289;72367;-82
2023/12/02 09:52:03;;;;;;;12.90;9.30;;;;;;;24.19;31.78;99653.10;103086;1290;74906;-82
2023/12/02 09:54:44;;;;;;;11.90;9.50;;;;;;;24.19;31.78;99631.58;103130;1290;61326;-82
2023/12/02 09:57:24;;;;;;;12.30;9.30;;;;;;;24.19;31.72;99631.60;103046;1290;61738;-82
2023/12/02 10:00:02;;;;;;;11.80;8.90;;;;;;;24.18;31.81;99678.55;103112;1290;72690;-82
2023/12/02 10:03:02;;;;;;;11.50;8.90;;;;;;;24.18;31.82;99699.05;103382;1290;74258;-82
2023/12/02 10:05:28;;;;;;;13.30;9.00;;;;;;;24.17;31.77;99710.66;103186;1290;61320;-82
2023/12/02 10:08:13;;;;;;;11.30;8.80;;;;;;;24.18;31.85;99712.42;103152;1291;61479;-82
2023/12/02 10:10:47;;;;;;;11.80;8.60;;;;;;;24.17;31.85;99709.80;103223;1289;63749;-82
2023/12/02 10:13:29;;;;;;;11.30;8.80;;;;;;;24.18;31.83;99719.05;103113;1291;73297;-82
2023/12/02 10:15:58;;;;;;;13.80;8.90;;;;;;;24.18;31.91;99718.52;103156;1291;61401;-82
2023/12/02 10:18:24;;;;;;;12.20;8.50;;;;;;;24.18;31.84;99717.06;103121;1290;61402;-82
2023/12/02 10:20:57;;;;;;;12.60;9.20;;;;;;;24.18;31.97;99716.02;103193;1295;61331;-82
2023/12/02 10:23:55;;;;;;;11.10;8.80;;;;;;;24.18;31.88;99711.11;103141;1295;74329;-82
2023/12/02 10:26:41;;;;;;;13.10;8.90;;;;;;;24.18;31.88;99695.35;103144;1292;61390;-82
2023/12/02 10:29:31;;;;;;;10.80;8.30;;;;;;;24.17;31.89;99686.73;103165;1291;61266;-81
2023/12/02 10:32:06;;;;;;;13.60;9.30;;;;;;;24.17;31.90;99681.36;103147;1295;72541;-83
2023/12/02 10:34:43;;;;;;;11.50;8.40;;;;;;;24.17;31.92;99671.09;103371;1290;74458;-82
2023/12/02 10:37:09;;;;;;;11.90;8.70;;;;;;;24.18;31.91;99662.63;103168;1292;61429;-82
2023/12/02 10:39:46;;;;;;;11.00;8.60;;;;;;;24.17;31.95;99665.73;103096;1290;61365;-82
2023/12/02 10:42:29;;;;;;;12.10;8.50;;;;;;;24.18;31.98;99671.09;103176;1290;72473;-82
2023/12/02 10:45:05;;;;;;;10.60;8.50;;;;;;;24.18;31.89;99669.10;103315;1291;75198;-82
2023/12/02 10:47:31;;;;;;;10.90;8.60;;;;;;;24.17;31.97;99659.77;103210;1294;61460;-82
2023/12/02 10:50:01;;;;;;;11.30;8.60;;;;;;;24.18;32.00;99651.11;103167;1296;61825;-82
2023/12/02 10:52:28;;;;;;;11.00;8.20;;;;;;;24.18;31.94;99653.03;103098;1290;72598;-83
2023/12/02 10:54:59;;;;;;;10.90;8.40;;;;;;;24.18;31.98;99656.50;103115;1290;61371;-83
2023/12/02 10:57:25;;;;;;;11.30;8.90;;;;;;;24.17;32.04;99653.11;103173;1290;61326;-82
2023/12/02 11:00:12;;;;;;;12.80;8.80;;;;;;;24.18;32.01;99652.56;103125;1290;61333;-82
2023/12/02 11:02:49;;;;;;;11.70;8.50;;;;;;;24.18;32.00;99662.27;103108;1295;72532;-83
2023/12/02 11:05:23;;;;;;;12.10;8.80;;;;;;;24.17;31.95;99651.02;103214;1294;73481;-83
2023/12/02 11:07:54;;;;;;;11.00;8.50;;;;;;;24.17;31.95;99635.02;103150;1291;61285;-83
2023/12/02 11:10:32;;;;;;;12.60;8.50;;;;;;;24.16;31.97;99643.14;103171;1290;61293;-82
2023/12/02 11:13:04;;;;;;;10.70;8.20;;;;;;;24.16;32.03;99651.27;103263;1294;72476;-82